Superior, WI

3:06 AM CDT on June 03, 2015 (GMT -0500)
Central Park | | Change Station
CLOSE
Current Station
Personal Weather Station
Location: Superior, WI
Elevation: 623 ft
Nearby Weather Stations

Elev 623 ft 46.72 °N, 92.07 °W | Updated 4 seconds ago

Overcast
Overcast
46.4 °F
Feels Like 46 °F
N
2.2
Wind Variable Wind from NNE
Gusts 6.0 mph

Today
High -- | Low -- °F
--% Chance of Precip.
Yesterday
High -- | Low -- °F
Precip. -- in
5:17 AM 8:56 PM
Waxing Gibbous, 99% visible
Pressure 29.90 in
Visibility 10.0 miles
Clouds Overcast 4800 ft
Windchill 46 °F
Dew Point 46 °F
Humidity 99%
Rainfall 0.00 in
Snow Depth Not available.
UV 0 out of 12
Pollen 8.20 out of 12
Air Quality Not available.
Flu Activity Sporadic
METAR KSUW 030755Z AUTO 02006KT 10SM OVC048 08/05 A2990 RMK AO2 T00750050

More Conditions Fewer Conditions

Pressure 29.90 in
Visibility 10.0 miles
Clouds Overcast 4800 ft
Windchill 46 °F
Dew Point 46 °F
Humidity 99%
Rainfall 0.00 in
Snow Depth Not available.
UV 0 out of 12
Pollen 8.20 out of 12
Air Quality Not available.
Flu Activity Sporadic
METAR KSUW 030755Z AUTO 02006KT 10SM OVC048 08/05 A2990 RMK AO2 T00750050

More Conditions Fewer Conditions

10-Day Weather Forecast

×

Almanac

Astronomy

Jun. 03, 2015 Rise Set
Actual Time
Civil Twilight
Nautical Twilight
Astronomical Twilight
Moon
Length of Visible Light
Length of Day
Tomorrow will be .
, % of the Moon is Illuminated

Today's Extremes

State Highs State Lows

Community

WunderPhotos

Upload Photos

1,826,191 photos uploaded!

WunderBlogs® & News

Nearby

Air Quality

  Air Quality AQ Index Pollutant
Not available.

Snow Depth

Station Depth Elevation

Earthquake Activity

City Distance Mag. Time & Date
Minimum magnitude displayed is 2.5.

Coastal Water Temperatures

Place Temperature

Stations

Nearby Weather Stations

Station Location Temp. Windchill Dew Point Humidity Wind Precip. Elev Updated Type